Time;durP1;ratioP1;P1;durP2;ratioP2;P2;SDS_P1;SDS_P2;PMS_P1;PMS_P2;Temp;Humidity;BMP_temperature;BMP_pressure;BME280_temperature;BME280_humidity;BME280_pressure;Samples;Min_cycle;Max_cycle;Signal;HPM_P1;HPM_P2
2022/07/08 00:00:57;;;;;;;;;;;25.00;90.50;;;;;;5056185;28;20359;-55
2022/07/08 00:03:24;;;;;;;;;;;25.00;90.50;;;;;;5050993;28;19931;-53
2022/07/08 00:05:51;;;;;;;;;;;25.00;90.60;;;;;;5061470;28;20031;-54
2022/07/08 00:08:19;;;;;;;;;;;25.00;90.50;;;;;;5065422;28;19935;-55
2022/07/08 00:10:46;;;;;;;;;;;25.00;90.50;;;;;;5053498;28;19931;-53
2022/07/08 00:13:14;;;;;;;;;;;25.00;90.50;;;;;;5059186;28;19928;-53
2022/07/08 00:15:41;;;;;;;;;;;25.00;90.50;;;;;;5058767;28;19951;-51
2022/07/08 00:18:08;;;;;;;;;;;25.00;90.60;;;;;;5050039;28;19933;-50
2022/07/08 00:20:36;;;;;;;;;;;25.00;90.60;;;;;;5049797;28;20593;-55
2022/07/08 00:23:03;;;;;;;;;;;25.00;90.60;;;;;;5049925;28;19924;-49
2022/07/08 00:25:31;;;;;;;;;;;25.00;90.60;;;;;;5052315;28;19924;-54
2022/07/08 00:27:58;;;;;;;;;;;25.00;90.60;;;;;;5049654;28;20264;-51
2022/07/08 00:30:25;;;;;;;;;;;25.00;90.60;;;;;;5049663;28;19925;-55
2022/07/08 00:32:52;;;;;;;;;;;25.00;90.60;;;;;;5058365;28;19932;-51
2022/07/08 00:35:19;;;;;;;;;;;25.00;90.60;;;;;;5051691;28;20281;-57
2022/07/08 00:37:46;;;;;;;;;;;25.00;90.50;;;;;;5049765;28;20422;-51
2022/07/08 00:40:13;;;;;;;;;;;25.00;90.60;;;;;;5050243;28;19921;-53
2022/07/08 00:42:40;;;;;;;;;;;25.00;90.60;;;;;;5050052;28;19928;-54
2022/07/08 00:45:08;;;;;;;;;;;25.00;90.60;;;;;;5049299;28;19924;-51
2022/07/08 00:47:35;;;;;;;;;;;25.00;90.60;;;;;;5050194;28;19924;-54
2022/07/08 00:50:02;;;;;;;;;;;25.00;90.60;;;;;;5049662;28;19925;-54
2022/07/08 00:52:29;;;;;;;;;;;25.00;90.60;;;;;;5049888;28;19925;-52
2022/07/08 00:54:57;;;;;;;;;;;25.00;90.60;;;;;;5052212;28;19928;-54
2022/07/08 00:57:25;;;;;;;;;;;25.00;90.60;;;;;;5050929;28;19921;-51
2022/07/08 00:59:52;;;;;;;;;;;25.00;90.60;;;;;;5052203;28;19944;-54
2022/07/08 01:02:19;;;;;;;;;;;24.90;90.60;;;;;;5065733;28;19924;-54
2022/07/08 01:04:47;;;;;;;;;;;24.90;90.60;;;;;;5049560;28;19929;-53
2022/07/08 01:07:14;;;;;;;;;;;24.90;90.60;;;;;;5049595;28;19924;-54
2022/07/08 01:09:41;;;;;;;;;;;24.90;90.60;;;;;;5049440;28;19924;-54
2022/07/08 01:12:08;;;;;;;;;;;24.90;90.60;;;;;;5049180;28;20004;-52
2022/07/08 01:14:36;;;;;;;;;;;24.90;90.60;;;;;;5055380;28;19925;-54
2022/07/08 01:17:03;;;;;;;;;;;24.90;90.60;;;;;;5048417;28;19927;-55
2022/07/08 01:19:32;;;;;;;;;;;24.90;90.60;;;;;;5049266;28;20016;-52
2022/07/08 01:22:00;;;;;;;;;;;24.90;90.60;;;;;;5048212;28;20419;-54
2022/07/08 01:24:27;;;;;;;;;;;24.90;90.60;;;;;;5048044;28;19928;-51
2022/07/08 01:26:56;;;;;;;;;;;24.90;90.60;;;;;;5050156;28;19928;-52
2022/07/08 01:29:23;;;;;;;;;;;24.90;90.60;;;;;;5048974;28;20315;-52
2022/07/08 01:31:51;;;;;;;;;;;24.90;90.60;;;;;;5049123;28;19947;-53
2022/07/08 01:34:18;;;;;;;;;;;24.90;90.60;;;;;;5049147;28;19924;-55
2022/07/08 01:36:45;;;;;;;;;;;24.90;90.60;;;;;;5049271;28;19925;-55
2022/07/08 01:39:12;;;;;;;;;;;24.80;90.60;;;;;;5049697;28;20319;-54
2022/07/08 01:41:40;;;;;;;;;;;24.80;90.60;;;;;;5050169;28;19924;-53
2022/07/08 01:44:07;;;;;;;;;;;24.90;90.60;;;;;;5047851;28;19963;-50
2022/07/08 01:46:34;;;;;;;;;;;24.80;90.60;;;;;;5052046;28;20360;-51
2022/07/08 01:49:02;;;;;;;;;;;24.80;90.60;;;;;;5062769;28;19939;-51
2022/07/08 01:51:29;;;;;;;;;;;24.80;90.60;;;;;;5048845;28;19924;-50
2022/07/08 01:53:56;;;;;;;;;;;24.80;90.60;;;;;;5048133;28;20308;-52
2022/07/08 01:56:23;;;;;;;;;;;24.80;90.60;;;;;;5056602;28;19925;-54
2022/07/08 01:58:50;;;;;;;;;;;24.80;90.60;;;;;;5049091;28;19932;-51
2022/07/08 02:01:17;;;;;;;;;;;24.80;90.60;;;;;;5050394;28;20817;-53
2022/07/08 02:03:45;;;;;;;;;;;24.80;90.60;;;;;;5056030;28;19931;-53
2022/07/08 02:06:13;;;;;;;;;;;24.80;90.60;;;;;;5048390;28;19931;-53
2022/07/08 02:08:40;;;;;;;;;;;24.80;90.60;;;;;;5050983;28;20407;-53
2022/07/08 02:13:52;;;;;;;;;;;24.80;90.60;;;;;;5049872;28;19931;-51
2022/07/08 02:16:20;;;;;;;;;;;24.80;90.60;;;;;;5052170;28;20422;-51
2022/07/08 02:18:47;;;;;;;;;;;24.80;90.60;;;;;;5049110;28;19931;-51
2022/07/08 02:21:14;;;;;;;;;;;24.80;90.70;;;;;;5048333;28;19924;-54
2022/07/08 02:23:41;;;;;;;;;;;24.80;90.60;;;;;;5047391;28;19925;-52
2022/07/08 02:26:08;;;;;;;;;;;24.80;90.60;;;;;;5050701;28;19935;-54
2022/07/08 02:28:35;;;;;;;;;;;24.80;90.60;;;;;;5068031;28;19924;-55
2022/07/08 02:31:02;;;;;;;;;;;24.80;90.60;;;;;;5055647;28;20046;-53
2022/07/08 02:33:30;;;;;;;;;;;24.80;90.60;;;;;;5047251;28;20307;-50
2022/07/08 02:35:57;;;;;;;;;;;24.80;90.60;;;;;;5047086;28;19928;-53
2022/07/08 02:38:25;;;;;;;;;;;24.80;90.60;;;;;;5047938;28;20450;-51
2022/07/08 02:40:53;;;;;;;;;;;24.70;90.60;;;;;;5049452;28;19924;-56
2022/07/08 02:43:20;;;;;;;;;;;24.80;90.60;;;;;;5054022;28;19948;-54
2022/07/08 02:45:47;;;;;;;;;;;24.70;90.60;;;;;;5049769;28;19931;-54
2022/07/08 02:48:14;;;;;;;;;;;24.80;90.60;;;;;;5058659;28;20418;-55
2022/07/08 02:50:41;;;;;;;;;;;24.70;90.60;;;;;;5047909;28;19924;-52
2022/07/08 02:53:08;;;;;;;;;;;24.70;90.60;;;;;;5047059;28;20348;-50
2022/07/08 02:55:35;;;;;;;;;;;24.80;90.60;;;;;;5047836;28;19935;-53
2022/07/08 02:58:02;;;;;;;;;;;24.70;90.60;;;;;;5046361;28;19924;-53
2022/07/08 03:00:30;;;;;;;;;;;24.70;90.60;;;;;;5057799;28;20406;-50
2022/07/08 03:02:57;;;;;;;;;;;24.70;90.60;;;;;;5047619;28;19931;-54
2022/07/08 03:05:24;;;;;;;;;;;24.70;90.60;;;;;;5047940;28;19928;-51
2022/07/08 03:07:51;;;;;;;;;;;24.70;90.80;;;;;;5048731;28;19920;-51
2022/07/08 03:10:18;;;;;;;;;;;24.70;90.60;;;;;;5047858;28;19951;-52
2022/07/08 03:12:45;;;;;;;;;;;24.70;90.90;;;;;;5053945;28;19928;-52
2022/07/08 03:15:12;;;;;;;;;;;24.70;90.60;;;;;;5048534;28;20666;-55
2022/07/08 03:17:39;;;;;;;;;;;24.70;90.60;;;;;;5057696;28;19925;-56
2022/07/08 03:20:07;;;;;;;;;;;24.70;90.60;;;;;;5049333;28;19947;-56
2022/07/08 03:22:34;;;;;;;;;;;24.70;90.60;;;;;;5068041;28;19931;-57
2022/07/08 03:25:01;;;;;;;;;;;24.70;90.60;;;;;;5048104;28;19925;-55
2022/07/08 03:27:28;;;;;;;;;;;24.70;90.60;;;;;;5067666;28;19925;-54
2022/07/08 03:29:55;;;;;;;;;;;24.70;90.60;;;;;;5048457;28;20299;-56
2022/07/08 03:32:23;;;;;;;;;;;24.70;90.60;;;;;;5058589;28;19924;-52
2022/07/08 03:34:50;;;;;;;;;;;24.60;90.60;;;;;;5051247;28;19924;-53
2022/07/08 03:37:17;;;;;;;;;;;24.60;90.60;;;;;;5052592;28;20016;-51
2022/07/08 03:39:45;;;;;;;;;;;24.60;90.60;;;;;;5049045;28;19924;-54
2022/07/08 03:42:12;;;;;;;;;;;24.60;90.60;;;;;;5052636;28;19921;-54
2022/07/08 03:44:39;;;;;;;;;;;24.60;90.60;;;;;;5049148;28;19925;-50
2022/07/08 03:47:06;;;;;;;;;;;24.60;90.60;;;;;;5056668;28;19924;-51
2022/07/08 03:49:33;;;;;;;;;;;24.60;90.60;;;;;;5051154;28;19920;-50
2022/07/08 03:52:01;;;;;;;;;;;24.60;90.60;;;;;;5079764;28;19927;-53
2022/07/08 03:54:28;;;;;;;;;;;24.60;90.60;;;;;;5054426;28;19924;-54
2022/07/08 03:56:56;;;;;;;;;;;24.60;90.60;;;;;;5059681;28;20299;-55
2022/07/08 03:59:24;;;;;;;;;;;24.60;90.60;;;;;;5069857;28;19920;-52
2022/07/08 04:01:51;;;;;;;;;;;24.60;90.60;;;;;;5055952;28;19920;-50
2022/07/08 04:04:19;;;;;;;;;;;24.60;90.60;;;;;;5050074;28;20416;-53
2022/07/08 04:06:46;;;;;;;;;;;24.60;90.60;;;;;;5051403;28;19925;-54
2022/07/08 04:09:13;;;;;;;;;;;24.60;90.60;;;;;;5059194;28;19924;-52
2022/07/08 04:11:41;;;;;;;;;;;24.60;90.60;;;;;;5059477;28;19924;-50
2022/07/08 04:14:08;;;;;;;;;;;24.60;90.60;;;;;;5054558;28;20380;-51
2022/07/08 04:16:36;;;;;;;;;;;24.60;90.60;;;;;;5050686;28;19927;-55
2022/07/08 04:19:03;;;;;;;;;;;24.60;90.60;;;;;;5050392;28;20300;-52
2022/07/08 04:21:30;;;;;;;;;;;24.60;90.60;;;;;;5050394;28;19920;-53
2022/07/08 04:23:59;;;;;;;;;;;24.60;90.60;;;;;;5050723;28;19936;-54
2022/07/08 04:26:31;;;;;;;;;;;24.60;90.60;;;;;;5057428;28;19924;-53
2022/07/08 04:28:59;;;;;;;;;;;24.60;90.60;;;;;;5050179;28;19932;-53
2022/07/08 04:31:27;;;;;;;;;;;24.60;90.60;;;;;;5049697;28;19925;-54
2022/07/08 04:33:54;;;;;;;;;;;24.60;90.60;;;;;;5048472;28;20483;-55
2022/07/08 04:36:22;;;;;;;;;;;24.50;90.90;;;;;;5049710;28;19921;-50
2022/07/08 04:38:49;;;;;;;;;;;24.60;90.60;;;;;;5048595;28;20015;-55
2022/07/08 04:41:16;;;;;;;;;;;24.60;90.60;;;;;;5067771;28;19978;-50
2022/07/08 04:43:46;;;;;;;;;;;24.60;90.60;;;;;;5065158;28;19924;-51
2022/07/08 04:46:13;;;;;;;;;;;24.60;90.50;;;;;;5050747;28;19925;-54
2022/07/08 04:48:40;;;;;;;;;;;24.60;90.60;;;;;;5049417;28;19932;-53
2022/07/08 04:51:08;;;;;;;;;;;24.60;90.60;;;;;;5049164;28;19925;-51
2022/07/08 04:53:35;;;;;;;;;;;24.60;90.50;;;;;;5049299;28;19932;-51
2022/07/08 04:56:02;;;;;;;;;;;24.60;90.60;;;;;;5048674;28;20654;-54
2022/07/08 04:58:29;;;;;;;;;;;24.60;90.60;;;;;;5052944;28;19995;-50
2022/07/08 05:00:58;;;;;;;;;;;24.60;90.50;;;;;;5058602;28;19924;-54
2022/07/08 05:03:25;;;;;;;;;;;24.70;90.50;;;;;;5051620;28;19932;-51
2022/07/08 05:05:53;;;;;;;;;;;24.70;90.50;;;;;;5049030;28;19949;-54
2022/07/08 05:08:20;;;;;;;;;;;24.70;90.50;;;;;;5048930;28;19929;-54
2022/07/08 05:10:48;;;;;;;;;;;24.70;90.50;;;;;;5051649;28;19925;-56
2022/07/08 05:13:15;;;;;;;;;;;24.70;90.50;;;;;;5048900;28;19935;-56
2022/07/08 05:15:42;;;;;;;;;;;24.70;90.80;;;;;;5049346;28;19932;-51
2022/07/08 05:18:10;;;;;;;;;;;24.60;90.50;;;;;;5049473;28;20403;-49
2022/07/08 05:20:37;;;;;;;;;;;24.60;90.50;;;;;;5049483;28;19924;-53
2022/07/08 05:23:05;;;;;;;;;;;24.60;90.50;;;;;;5048922;28;20415;-51
2022/07/08 05:25:32;;;;;;;;;;;24.60;90.60;;;;;;5049475;28;19935;-55
2022/07/08 05:27:59;;;;;;;;;;;24.60;90.60;;;;;;5047792;28;19932;-54
2022/07/08 05:30:27;;;;;;;;;;;24.60;90.60;;;;;;5060338;28;19931;-52
2022/07/08 05:32:54;;;;;;;;;;;24.60;90.60;;;;;;5056390;28;19920;-51
2022/07/08 05:35:21;;;;;;;;;;;24.60;90.60;;;;;;5052082;28;19920;-51
2022/07/08 05:37:48;;;;;;;;;;;24.60;90.60;;;;;;5047816;28;19920;-53
2022/07/08 05:40:16;;;;;;;;;;;24.60;90.50;;;;;;5058767;28;19924;-52
2022/07/08 05:42:43;;;;;;;;;;;24.60;90.60;;;;;;5054288;28;19932;-53
2022/07/08 05:45:10;;;;;;;;;;;24.60;90.60;;;;;;5048844;28;19928;-57
2022/07/08 05:47:37;;;;;;;;;;;24.60;90.60;;;;;;5056526;28;19925;-56
2022/07/08 05:50:05;;;;;;;;;;;24.60;90.60;;;;;;5048731;28;19950;-51
2022/07/08 05:52:33;;;;;;;;;;;24.60;90.60;;;;;;5049341;28;19981;-51
2022/07/08 05:55:00;;;;;;;;;;;24.60;90.60;;;;;;5048669;28;19924;-51
2022/07/08 05:57:28;;;;;;;;;;;24.60;90.60;;;;;;5048647;28;19931;-56
2022/07/08 05:59:55;;;;;;;;;;;24.60;90.60;;;;;;5054178;28;19936;-51
2022/07/08 06:02:22;;;;;;;;;;;24.60;90.60;;;;;;5048602;28;19924;-52
2022/07/08 06:04:49;;;;;;;;;;;24.70;90.60;;;;;;5048099;28;19925;-57
2022/07/08 06:07:16;;;;;;;;;;;24.60;90.60;;;;;;5050797;28;20047;-56
2022/07/08 06:09:43;;;;;;;;;;;24.70;90.60;;;;;;5048606;28;19925;-54
2022/07/08 06:12:11;;;;;;;;;;;24.70;90.60;;;;;;5056276;28;19929;-53
2022/07/08 06:14:38;;;;;;;;;;;24.70;90.50;;;;;;5047420;28;19925;-52
2022/07/08 06:17:05;;;;;;;;;;;24.70;90.50;;;;;;5049111;28;19925;-53
2022/07/08 06:19:32;;;;;;;;;;;24.70;90.50;;;;;;5048887;28;19924;-52
2022/07/08 06:21:59;;;;;;;;;;;24.70;90.50;;;;;;5046240;28;19947;-55
2022/07/08 06:24:26;;;;;;;;;;;24.70;90.50;;;;;;5048153;28;19920;-52
2022/07/08 06:26:53;;;;;;;;;;;24.70;90.50;;;;;;5051480;28;19928;-54
2022/07/08 06:29:20;;;;;;;;;;;24.70;90.50;;;;;;5048170;28;19931;-56
2022/07/08 06:31:48;;;;;;;;;;;24.70;90.60;;;;;;5048299;28;19925;-53
2022/07/08 06:34:15;;;;;;;;;;;24.70;90.60;;;;;;5054277;28;20418;-51
2022/07/08 06:36:42;;;;;;;;;;;24.60;90.50;;;;;;5054911;28;19928;-55
2022/07/08 06:39:09;;;;;;;;;;;24.60;90.60;;;;;;5048665;28;19928;-52
2022/07/08 06:41:36;;;;;;;;;;;24.60;90.60;;;;;;5053310;28;19925;-52
2022/07/08 06:44:03;;;;;;;;;;;24.60;90.60;;;;;;5047557;28;20354;-51
2022/07/08 06:46:31;;;;;;;;;;;24.60;90.60;;;;;;5048395;28;19929;-55
2022/07/08 06:48:58;;;;;;;;;;;24.60;90.60;;;;;;5049601;28;19925;-53
2022/07/08 06:51:25;;;;;;;;;;;24.60;90.60;;;;;;5048404;28;19932;-55
2022/07/08 06:56:38;;;;;;;;;;;24.60;90.60;;;;;;5048980;28;19924;-51
2022/07/08 06:59:06;;;;;;;;;;;24.60;90.70;;;;;;5049208;28;19932;-56
2022/07/08 07:01:36;;;;;;;;;;;24.60;90.70;;;;;;5048927;28;19931;-56
2022/07/08 07:04:03;;;;;;;;;;;24.60;90.70;;;;;;5048586;28;20399;-56
2022/07/08 07:06:30;;;;;;;;;;;24.60;90.60;;;;;;5049190;28;19921;-50
2022/07/08 07:08:58;;;;;;;;;;;24.60;90.70;;;;;;5048237;28;19924;-52
2022/07/08 07:11:25;;;;;;;;;;;24.60;90.60;;;;;;5050587;28;19935;-54
2022/07/08 07:13:52;;;;;;;;;;;24.60;90.60;;;;;;5054023;28;19924;-54
2022/07/08 07:16:19;;;;;;;;;;;24.60;90.60;;;;;;5047189;28;19987;-53
2022/07/08 07:18:47;;;;;;;;;;;24.60;90.60;;;;;;5049162;28;19931;-57
2022/07/08 07:21:14;;;;;;;;;;;24.60;90.60;;;;;;5051944;28;19924;-55
2022/07/08 07:23:41;;;;;;;;;;;24.60;90.60;;;;;;5052154;28;20289;-55
2022/07/08 07:26:08;;;;;;;;;;;24.60;90.60;;;;;;5038776;28;19932;-55
2022/07/08 07:28:35;;;;;;;;;;;24.60;90.60;;;;;;5051829;28;19924;-52
2022/07/08 07:31:03;;;;;;;;;;;24.60;90.60;;;;;;5051347;28;19935;-56
2022/07/08 07:33:30;;;;;;;;;;;24.60;90.60;;;;;;5051802;28;19928;-54
2022/07/08 07:35:57;;;;;;;;;;;24.60;90.60;;;;;;5052459;28;20384;-55
2022/07/08 07:38:24;;;;;;;;;;;24.60;90.60;;;;;;5054574;28;19924;-55
2022/07/08 07:40:52;;;;;;;;;;;24.60;90.60;;;;;;5056205;28;19935;-56
2022/07/08 07:43:19;;;;;;;;;;;24.60;90.70;;;;;;5051238;28;19925;-56
2022/07/08 07:45:46;;;;;;;;;;;24.60;90.70;;;;;;5053916;28;20222;-54
2022/07/08 07:48:14;;;;;;;;;;;24.60;90.70;;;;;;5065103;28;19925;-55
2022/07/08 07:50:41;;;;;;;;;;;24.60;90.70;;;;;;5061424;28;19925;-58
2022/07/08 07:53:08;;;;;;;;;;;24.60;90.70;;;;;;5063163;28;19931;-55
2022/07/08 07:55:36;;;;;;;;;;;24.60;90.70;;;;;;5054426;28;19924;-57
2022/07/08 07:58:03;;;;;;;;;;;24.60;90.70;;;;;;5056446;28;19925;-58
2022/07/08 08:00:30;;;;;;;;;;;24.60;90.70;;;;;;5066337;28;20012;-57
2022/07/08 08:02:58;;;;;;;;;;;24.60;90.70;;;;;;5051716;28;19924;-55
2022/07/08 08:05:25;;;;;;;;;;;24.60;90.70;;;;;;5053087;28;19944;-57
2022/07/08 08:07:52;;;;;;;;;;;24.60;90.70;;;;;;5060088;28;20368;-54
2022/07/08 08:10:19;;;;;;;;;;;24.60;90.70;;;;;;5057809;28;20284;-55
2022/07/08 08:12:46;;;;;;;;;;;24.50;90.70;;;;;;5085572;28;19924;-53
2022/07/08 08:15:16;;;;;;;;;;;24.60;90.70;;;;;;5052970;28;19935;-52
2022/07/08 08:17:43;;;;;;;;;;;24.60;90.70;;;;;;5051732;28;20411;-55
2022/07/08 08:20:11;;;;;;;;;;;24.60;90.70;;;;;;5052517;28;19924;-53
2022/07/08 08:22:39;;;;;;;;;;;24.60;90.70;;;;;;5051690;28;19932;-55
2022/07/08 08:25:27;;;;;;;;;;;24.70;90.60;;;;;;5048680;28;19932;-54
2022/07/08 08:27:54;;;;;;;;;;;24.60;90.60;;;;;;5050294;28;20540;-54
2022/07/08 08:30:22;;;;;;;;;;;24.60;90.70;;;;;;5053406;28;20308;-52
2022/07/08 08:32:49;;;;;;;;;;;24.70;90.70;;;;;;5049612;28;19924;-52
2022/07/08 08:35:17;;;;;;;;;;;24.60;90.60;;;;;;5049360;28;19940;-51
2022/07/08 08:37:44;;;;;;;;;;;24.60;90.70;;;;;;5056716;28;19924;-51
2022/07/08 08:40:12;;;;;;;;;;;24.60;90.60;;;;;;5049621;28;19925;-50
2022/07/08 08:42:40;;;;;;;;;;;24.60;90.70;;;;;;5055892;28;19928;-53
2022/07/08 08:45:08;;;;;;;;;;;24.60;90.70;;;;;;5064499;28;20027;-52
2022/07/08 08:47:36;;;;;;;;;;;24.60;90.70;;;;;;5049776;28;19931;-55
2022/07/08 08:52:52;;;;;;;;;;;24.60;90.70;;;;;;5049464;28;20034;-56
2022/07/08 08:55:27;;;;;;;;;;;24.60;90.70;;;;;;5063080;28;19924;-57
2022/07/08 08:57:58;;;;;;;;;;;24.60;90.70;;;;;;5067927;28;19924;-53
2022/07/08 09:00:28;;;;;;;;;;;24.60;90.70;;;;;;5053249;28;19929;-51
2022/07/08 09:02:56;;;;;;;;;;;24.60;90.70;;;;;;5048613;28;19946;-52
2022/07/08 09:05:25;;;;;;;;;;;24.60;90.70;;;;;;5050701;28;19924;-51
2022/07/08 09:07:52;;;;;;;;;;;24.60;90.80;;;;;;5049680;28;20451;-55
2022/07/08 09:10:19;;;;;;;;;;;24.60;90.70;;;;;;5048316;28;19925;-51
2022/07/08 09:13:05;;;;;;;;;;;24.60;90.70;;;;;;5051150;28;19931;-52
2022/07/08 09:15:32;;;;;;;;;;;24.60;90.70;;;;;;5050446;28;20324;-56
2022/07/08 09:18:01;;;;;;;;;;;24.60;90.70;;;;;;5050556;28;19931;-52
2022/07/08 09:20:37;;;;;;;;;;;24.60;90.70;;;;;;5055889;28;19931;-53
2022/07/08 09:23:05;;;;;;;;;;;24.60;90.60;;;;;;5071832;28;19931;-55
2022/07/08 09:25:32;;;;;;;;;;;24.60;90.60;;;;;;5048797;28;19936;-52
2022/07/08 09:28:00;;;;;;;;;;;24.70;90.70;;;;;;5065414;28;19920;-53
2022/07/08 09:30:28;;;;;;;;;;;24.60;90.70;;;;;;5053587;28;20367;-54
2022/07/08 09:33:00;;;;;;;;;;;24.60;90.70;;;;;;5035091;28;19935;-53
2022/07/08 09:35:30;;;;;;;;;;;24.70;90.70;;;;;;5050736;28;19924;-52
2022/07/08 09:38:01;;;;;;;;;;;24.70;90.70;;;;;;5049314;28;19924;-50
2022/07/08 09:40:29;;;;;;;;;;;24.70;90.70;;;;;;5049195;28;19931;-55
2022/07/08 09:42:56;;;;;;;;;;;24.70;90.70;;;;;;5063657;28;19924;-51
2022/07/08 09:45:32;;;;;;;;;;;24.70;90.70;;;;;;5057363;28;19924;-55
2022/07/08 09:48:00;;;;;;;;;;;24.70;90.70;;;;;;5048295;28;19988;-52
2022/07/08 09:50:31;;;;;;;;;;;24.70;90.70;;;;;;5048858;28;20470;-51
2022/07/08 09:53:22;;;;;;;;;;;24.70;90.90;;;;;;5047404;28;19932;-53
2022/07/08 09:55:51;;;;;;;;;;;24.70;90.70;;;;;;5053519;28;19924;-53
2022/07/08 09:58:20;;;;;;;;;;;24.70;90.70;;;;;;5062713;28;19924;-53
2022/07/08 10:00:49;;;;;;;;;;;24.70;90.70;;;;;;5060292;28;19931;-56
2022/07/08 10:03:17;;;;;;;;;;;24.70;90.70;;;;;;5049166;28;19937;-53
2022/07/08 10:05:45;;;;;;;;;;;24.70;90.70;;;;;;5048565;28;19936;-56
2022/07/08 10:08:12;;;;;;;;;;;24.70;90.80;;;;;;5050607;28;19954;-52
2022/07/08 10:10:41;;;;;;;;;;;24.70;90.70;;;;;;5049726;28;19920;-52
2022/07/08 10:13:08;;;;;;;;;;;24.70;90.70;;;;;;5061734;28;19924;-56
2022/07/08 10:15:36;;;;;;;;;;;24.70;90.80;;;;;;5055792;28;19939;-54
2022/07/08 10:18:20;;;;;;;;;;;24.70;90.80;;;;;;5048880;28;20372;-50
2022/07/08 10:20:50;;;;;;;;;;;24.70;90.80;;;;;;5049122;28;19968;-53
2022/07/08 10:23:23;;;;;;;;;;;24.70;90.80;;;;;;5048267;28;20422;-53
2022/07/08 10:25:52;;;;;;;;;;;24.70;90.80;;;;;;5048946;28;19921;-53
2022/07/08 10:28:32;;;;;;;;;;;24.70;90.80;;;;;;5048517;28;19924;-54
2022/07/08 10:30:59;;;;;;;;;;;24.70;90.80;;;;;;5049930;28;19931;-56
2022/07/08 10:33:28;;;;;;;;;;;24.70;90.80;;;;;;5055046;28;19921;-55
2022/07/08 10:36:06;;;;;;;;;;;24.70;90.80;;;;;;5049571;28;19924;-57
2022/07/08 10:38:43;;;;;;;;;;;24.70;90.80;;;;;;5047042;28;19931;-52
2022/07/08 10:41:20;;;;;;;;;;;24.70;90.80;;;;;;5049057;28;19943;-55
2022/07/08 10:43:51;;;;;;;;;;;24.70;90.80;;;;;;5051683;28;20804;-53
2022/07/08 10:46:24;;;;;;;;;;;24.70;90.80;;;;;;5048881;28;19946;-55
2022/07/08 10:48:51;;;;;;;;;;;24.70;90.80;;;;;;5048598;28;20259;-51
2022/07/08 10:51:19;;;;;;;;;;;24.70;90.80;;;;;;5050340;28;19920;-52
2022/07/08 10:54:06;;;;;;;;;;;24.70;90.80;;;;;;5051106;28;19924;-51
2022/07/08 10:56:53;;;;;;;;;;;24.70;90.80;;;;;;5062861;28;19935;-54
2022/07/08 10:59:24;;;;;;;;;;;24.70;90.80;;;;;;5055954;28;19927;-53
2022/07/08 11:01:52;;;;;;;;;;;24.60;90.70;;;;;;5052941;28;19996;-54
2022/07/08 11:04:25;;;;;;;;;;;24.70;90.80;;;;;;5052225;28;19931;-54
2022/07/08 11:07:15;;;;;;;;;;;24.70;90.80;;;;;;5052122;28;20645;-56
2022/07/08 11:09:43;;;;;;;;;;;24.60;90.70;;;;;;5054252;28;19950;-52
2022/07/08 11:12:14;;;;;;;;;;;24.60;90.70;;;;;;5065433;28;19924;-53
2022/07/08 11:14:43;;;;;;;;;;;24.60;90.70;;;;;;5060440;28;19940;-56
2022/07/08 11:17:17;;;;;;;;;;;24.60;90.70;;;;;;5051025;28;19932;-55
2022/07/08 11:19:45;;;;;;;;;;;24.70;90.70;;;;;;5050592;28;19924;-54
2022/07/08 11:22:12;;;;;;;;;;;24.70;90.70;;;;;;5053908;28;19924;-52
2022/07/08 11:24:51;;;;;;;;;;;24.70;90.70;;;;;;5057364;28;20411;-51
2022/07/08 11:27:22;;;;;;;;;;;24.60;90.70;;;;;;5055032;28;19943;-55
2022/07/08 11:29:50;;;;;;;;;;;24.70;90.70;;;;;;5061693;28;19924;-54
2022/07/08 11:32:19;;;;;;;;;;;24.70;90.70;;;;;;5051388;28;20403;-56
2022/07/08 11:34:47;;;;;;;;;;;24.70;90.70;;;;;;5049814;28;20019;-51
2022/07/08 11:37:14;;;;;;;;;;;24.70;90.70;;;;;;5052342;28;19924;-53
2022/07/08 11:39:42;;;;;;;;;;;24.70;90.70;;;;;;5050941;28;19925;-53
2022/07/08 11:42:10;;;;;;;;;;;24.60;90.70;;;;;;5053184;28;19920;-54
2022/07/08 11:44:37;;;;;;;;;;;24.60;90.70;;;;;;5050589;28;19932;-56
2022/07/08 11:47:04;;;;;;;;;;;24.70;90.70;;;;;;5053121;28;19928;-55
2022/07/08 11:49:32;;;;;;;;;;;24.70;90.70;;;;;;5053576;28;19931;-56
2022/07/08 11:52:00;;;;;;;;;;;24.70;90.70;;;;;;5050900;28;19932;-56
2022/07/08 11:54:28;;;;;;;;;;;24.70;90.70;;;;;;5052067;28;19920;-55
2022/07/08 11:56:56;;;;;;;;;;;24.70;90.70;;;;;;5051635;28;19925;-52
2022/07/08 11:59:24;;;;;;;;;;;24.70;90.60;;;;;;5055829;28;19931;-51
2022/07/08 12:01:52;;;;;;;;;;;24.70;90.60;;;;;;5054036;28;20323;-54
2022/07/08 12:04:20;;;;;;;;;;;24.70;90.60;;;;;;5050446;28;20315;-58
2022/07/08 12:06:48;;;;;;;;;;;24.70;90.60;;;;;;5060104;28;19924;-57
2022/07/08 12:09:16;;;;;;;;;;;24.70;90.60;;;;;;5065497;28;19925;-57
2022/07/08 12:11:44;;;;;;;;;;;24.70;90.60;;;;;;5053734;28;20466;-56
2022/07/08 12:14:12;;;;;;;;;;;24.70;90.60;;;;;;5052037;28;20486;-54
2022/07/08 12:16:42;;;;;;;;;;;24.70;90.60;;;;;;5071554;28;19929;-51
2022/07/08 12:19:28;;;;;;;;;;;24.70;90.60;;;;;;5051357;28;19927;-54
2022/07/08 12:21:56;;;;;;;;;;;24.70;90.60;;;;;;5064628;28;19936;-55
2022/07/08 12:24:24;;;;;;;;;;;24.70;90.60;;;;;;5050075;28;19925;-53
2022/07/08 12:26:52;;;;;;;;;;;24.70;90.60;;;;;;5051127;28;19921;-56
2022/07/08 12:29:19;;;;;;;;;;;24.70;90.60;;;;;;5062601;28;20343;-56
2022/07/08 12:31:47;;;;;;;;;;;24.70;90.60;;;;;;5049011;28;19936;-51
2022/07/08 12:34:15;;;;;;;;;;;24.70;90.60;;;;;;5058453;28;20506;-53
2022/07/08 12:36:42;;;;;;;;;;;24.70;90.60;;;;;;5057220;28;19943;-54
2022/07/08 12:39:10;;;;;;;;;;;24.70;90.60;;;;;;5049399;28;19920;-55
2022/07/08 12:41:38;;;;;;;;;;;24.70;90.60;;;;;;5057726;28;19924;-57
2022/07/08 12:44:23;;;;;;;;;;;24.80;90.60;;;;;;5050867;28;19929;-56
2022/07/08 12:46:50;;;;;;;;;;;24.70;90.60;;;;;;5054096;28;19920;-52
2022/07/08 12:49:23;;;;;;;;;;;24.80;90.60;;;;;;5061056;28;19925;-56
2022/07/08 12:51:51;;;;;;;;;;;24.80;90.60;;;;;;5065626;28;19920;-57
2022/07/08 12:54:19;;;;;;;;;;;24.80;90.60;;;;;;5070830;28;19924;-57
2022/07/08 12:56:46;;;;;;;;;;;24.80;90.60;;;;;;5059587;28;19925;-58
2022/07/08 12:59:13;;;;;;;;;;;24.80;90.60;;;;;;5064578;28;19928;-55
2022/07/08 13:01:40;;;;;;;;;;;24.80;90.60;;;;;;5058342;28;19931;-58
2022/07/08 13:04:08;;;;;;;;;;;24.80;90.60;;;;;;5049128;28;19924;-54
2022/07/08 13:06:35;;;;;;;;;;;24.80;90.60;;;;;;5049086;28;19929;-57
2022/07/08 13:09:03;;;;;;;;;;;24.90;90.60;;;;;;5051260;28;19932;-56
2022/07/08 13:11:38;;;;;;;;;;;24.90;90.60;;;;;;5050500;28;19932;-55
2022/07/08 13:14:05;;;;;;;;;;;24.90;90.60;;;;;;5057197;28;19935;-51
2022/07/08 13:16:33;;;;;;;;;;;24.90;90.50;;;;;;5050371;28;20272;-51
2022/07/08 13:19:00;;;;;;;;;;;25.00;90.50;;;;;;5049482;28;19931;-53
2022/07/08 13:21:28;;;;;;;;;;;25.00;90.50;;;;;;5050124;28;20721;-54
2022/07/08 13:24:02;;;;;;;;;;;25.00;90.50;;;;;;5050310;28;19932;-52
2022/07/08 13:26:30;;;;;;;;;;;25.10;90.50;;;;;;5059961;28;19924;-51
2022/07/08 13:28:57;;;;;;;;;;;25.10;90.50;;;;;;5053173;28;19924;-57
2022/07/08 13:31:24;;;;;;;;;;;25.10;90.50;;;;;;5056370;28;19920;-56
2022/07/08 13:33:53;;;;;;;;;;;25.10;90.40;;;;;;5048704;28;19921;-52
2022/07/08 13:36:20;;;;;;;;;;;25.20;90.40;;;;;;5058160;28;20415;-53
2022/07/08 13:38:48;;;;;;;;;;;25.20;90.40;;;;;;5056932;28;20042;-55
2022/07/08 13:41:16;;;;;;;;;;;25.20;90.40;;;;;;5050623;28;19928;-57
2022/07/08 13:43:43;;;;;;;;;;;25.30;90.30;;;;;;5048564;28;20359;-53
2022/07/08 13:46:13;;;;;;;;;;;25.30;90.30;;;;;;5050086;28;19931;-52
2022/07/08 13:48:41;;;;;;;;;;;25.30;90.20;;;;;;5049318;28;20319;-53
2022/07/08 13:51:08;;;;;;;;;;;25.40;90.20;;;;;;5049387;28;19939;-55
2022/07/08 13:53:35;;;;;;;;;;;25.40;90.20;;;;;;5047768;28;19927;-49
2022/07/08 13:56:03;;;;;;;;;;;25.40;90.10;;;;;;5051623;28;19936;-53
2022/07/08 13:58:30;;;;;;;;;;;25.40;90.10;;;;;;5049480;28;19927;-54
2022/07/08 14:00:59;;;;;;;;;;;25.50;90.00;;;;;;5056741;28;20700;-51
2022/07/08 14:03:27;;;;;;;;;;;25.50;90.00;;;;;;5048438;28;19924;-55
2022/07/08 14:05:54;;;;;;;;;;;25.60;90.00;;;;;;5055513;28;20264;-54
2022/07/08 14:08:21;;;;;;;;;;;25.60;89.90;;;;;;5055865;28;19920;-56
2022/07/08 14:11:08;;;;;;;;;;;25.60;89.80;;;;;;5049235;28;19924;-55
2022/07/08 14:13:35;;;;;;;;;;;25.70;89.80;;;;;;5048595;28;19928;-54
2022/07/08 14:16:04;;;;;;;;;;;25.70;89.80;;;;;;5053462;28;19924;-52
2022/07/08 14:18:32;;;;;;;;;;;25.70;89.70;;;;;;5054487;28;19931;-55
2022/07/08 14:21:00;;;;;;;;;;;25.80;89.70;;;;;;5047835;28;19955;-53
2022/07/08 14:23:30;;;;;;;;;;;25.80;89.60;;;;;;5047738;28;20399;-53
2022/07/08 14:25:57;;;;;;;;;;;25.80;89.40;;;;;;5056290;28;20367;-56
2022/07/08 14:28:25;;;;;;;;;;;25.90;89.40;;;;;;5048608;28;20399;-57
2022/07/08 14:30:52;;;;;;;;;;;25.90;89.30;;;;;;5047977;28;20000;-54